Time;durP1;ratioP1;P1;durP2;ratioP2;P2;SDS_P1;SDS_P2;PMS_P1;PMS_P2;Temp;Humidity;BMP_temperature;BMP_pressure;BME280_temperature;BME280_humidity;BME280_pressure;Samples;Min_cycle;Max_cycle;Signal;HPM_P1;HPM_P2
2024/04/09 00:01:09;;;;;;;0.10;0.10;;;14.60;1.00;;;;;;5449676;26;20370;-83
2024/04/09 00:03:37;;;;;;;0.10;0.10;;;14.80;1.00;;;;;;5449211;26;20026;-82
2024/04/09 00:06:19;;;;;;;0.10;0.10;;;14.70;1.00;;;;;;5448132;26;20030;-82
2024/04/09 00:08:46;;;;;;;0.10;0.10;;;14.70;1.00;;;;;;5457464;26;20041;-83
2024/04/09 00:11:21;;;;;;;0.20;0.20;;;14.80;1.00;;;;;;5479501;26;20027;-82
2024/04/09 00:13:52;;;;;;;0.20;0.20;;;14.50;1.00;;;;;;5449100;26;20031;-82
2024/04/09 00:16:22;;;;;;;0.10;0.10;;;14.50;1.00;;;;;;5448831;26;20027;-82
2024/04/09 00:18:55;;;;;;;0.10;0.10;;;14.60;1.00;;;;;;5446665;26;20378;-82
2024/04/09 00:21:22;;;;;;;0.20;0.20;;;14.60;1.00;;;;;;5448784;26;20022;-82
2024/04/09 00:23:56;;;;;;;0.10;0.10;;;14.50;1.00;;;;;;5448541;26;20039;-83
2024/04/09 00:26:24;;;;;;;0.10;0.10;;;14.70;1.00;;;;;;5447752;26;20050;-82
2024/04/09 00:28:51;;;;;;;0.10;0.10;;;14.60;1.00;;;;;;5474984;26;20040;-82
2024/04/09 00:31:21;;;;;;;0.10;0.10;;;14.60;1.00;;;;;;5485461;26;20034;-82
2024/04/09 00:33:49;;;;;;;0.20;0.20;;;14.50;1.00;;;;;;5461775;26;20356;-82
2024/04/09 00:36:15;;;;;;;0.10;0.10;;;14.50;1.00;;;;;;5448848;26;20474;-82
2024/04/09 00:38:46;;;;;;;0.20;0.20;;;14.60;1.00;;;;;;5447581;26;20030;-83
2024/04/09 00:41:14;;;;;;;0.10;0.10;;;14.60;1.00;;;;;;5447755;26;20380;-82
2024/04/09 00:43:41;;;;;;;0.20;0.20;;;14.80;1.00;;;;;;5448894;26;20027;-82
2024/04/09 00:46:12;;;;;;;0.10;0.10;;;14.60;1.00;;;;;;5449104;26;20026;-82
2024/04/09 00:48:42;;;;;;;0.20;0.20;;;14.60;1.00;;;;;;5446055;26;20042;-82
2024/04/09 00:51:15;;;;;;;0.15;0.15;;;14.80;1.00;;;;;;5450318;26;20027;-82
2024/04/09 00:53:44;;;;;;;0.10;0.10;;;14.60;1.00;;;;;;5456095;26;20003;-82
2024/04/09 00:56:12;;;;;;;0.10;0.10;;;14.70;1.00;;;;;;5449215;26;20526;-82
2024/04/09 00:58:40;;;;;;;0.10;0.10;;;14.70;1.00;;;;;;5447955;26;20023;-81
2024/04/09 01:01:07;;;;;;;0.10;0.10;;;14.60;1.00;;;;;;5449989;26;20035;-81
2024/04/09 01:03:35;;;;;;;0.10;0.10;;;14.60;1.00;;;;;;5446043;26;20027;-81
2024/04/09 01:06:02;;;;;;;0.10;0.10;;;14.80;1.00;;;;;;5447855;26;20038;-81
2024/04/09 01:08:29;;;;;;;0.10;0.10;;;14.60;1.00;;;;;;5452985;26;20022;-81
2024/04/09 01:10:56;;;;;;;0.10;0.10;;;14.60;1.00;;;;;;5466368;26;20372;-80
2024/04/09 01:13:23;;;;;;;0.10;0.10;;;14.60;1.00;;;;;;5448576;26;19999;-80
2024/04/09 01:15:50;;;;;;;0.10;0.10;;;14.70;1.00;;;;;;5446522;26;20110;-80
2024/04/09 01:18:18;;;;;;;0.10;0.10;;;14.60;1.00;;;;;;5447726;26;20074;-80
2024/04/09 01:20:44;;;;;;;0.20;0.20;;;14.60;1.00;;;;;;5447029;26;20027;-79
2024/04/09 01:23:12;;;;;;;0.17;0.17;;;14.70;1.00;;;;;;5448254;26;20031;-80
2024/04/09 01:25:38;;;;;;;0.10;0.10;;;14.70;1.00;;;;;;5447252;26;20031;-80
2024/04/09 01:28:05;;;;;;;0.10;0.10;;;14.60;1.00;;;;;;5448550;26;20049;-80
2024/04/09 01:30:32;;;;;;;0.20;0.20;;;14.60;1.00;;;;;;5450798;26;19999;-80
2024/04/09 01:32:59;;;;;;;0.10;0.10;;;14.70;1.00;;;;;;5447971;26;19998;-80
2024/04/09 01:35:26;;;;;;;0.20;0.20;;;14.60;1.00;;;;;;5446804;26;20023;-81
2024/04/09 01:37:53;;;;;;;0.20;0.20;;;14.90;1.00;;;;;;5456700;26;20027;-80
2024/04/09 01:40:20;;;;;;;0.10;0.10;;;14.70;1.00;;;;;;5483765;26;20038;-81
2024/04/09 01:42:46;;;;;;;0.10;0.10;;;14.70;1.00;;;;;;5453579;26;20006;-81
2024/04/09 01:45:13;;;;;;;0.20;0.20;;;14.80;1.00;;;;;;5446612;26;20389;-80
2024/04/09 01:47:40;;;;;;;0.10;0.10;;;14.80;1.00;;;;;;5448338;26;20643;-80
2024/04/09 01:50:10;;;;;;;0.20;0.20;;;14.90;1.00;;;;;;5446928;26;20027;-80
2024/04/09 01:52:37;;;;;;;0.10;0.10;;;14.80;1.00;;;;;;5457974;26;20025;-80
2024/04/09 01:55:07;;;;;;;0.10;0.10;;;15.10;1.00;;;;;;5483044;26;20026;-80
2024/04/09 01:57:35;;;;;;;0.10;0.10;;;14.80;1.00;;;;;;5480582;26;20026;-80
2024/04/09 02:00:11;;;;;;;0.10;0.10;;;14.90;1.00;;;;;;5446465;26;20032;-80
2024/04/09 02:02:42;;;;;;;0.20;0.20;;;14.80;1.00;;;;;;5448044;26;20023;-81
2024/04/09 02:05:09;;;;;;;0.10;0.10;;;14.90;1.00;;;;;;5445642;26;19999;-80
2024/04/09 02:07:35;;;;;;;0.10;0.10;;;14.80;1.00;;;;;;5449098;26;20039;-81
2024/04/09 02:10:03;;;;;;;0.10;0.10;;;14.80;1.00;;;;;;5476120;26;20026;-80
2024/04/09 02:12:30;;;;;;;0.10;0.10;;;14.80;1.00;;;;;;5458500;26;20009;-80
2024/04/09 02:14:57;;;;;;;0.10;0.10;;;14.80;1.00;;;;;;5446856;26;20478;-80
2024/04/09 02:17:24;;;;;;;0.20;0.20;;;14.80;1.00;;;;;;5447872;26;20486;-80
2024/04/09 02:19:51;;;;;;;0.17;0.17;;;14.90;1.00;;;;;;5445010;26;20024;-80
2024/04/09 02:22:18;;;;;;;0.17;0.17;;;14.80;1.00;;;;;;5447734;26;20058;-80
2024/04/09 02:24:45;;;;;;;0.10;0.10;;;14.90;1.00;;;;;;5446889;26;20054;-80
2024/04/09 02:27:13;;;;;;;0.20;0.20;;;14.80;1.00;;;;;;5446591;26;20022;-81
2024/04/09 02:29:39;;;;;;;0.20;0.20;;;14.90;1.00;;;;;;5447835;26;20335;-80
2024/04/09 02:32:06;;;;;;;0.20;0.20;;;14.80;1.00;;;;;;5451035;26;20031;-80
2024/04/09 02:34:35;;;;;;;0.10;0.10;;;14.90;1.00;;;;;;5481487;26;20005;-80
2024/04/09 02:37:04;;;;;;;0.10;0.10;;;14.90;1.00;;;;;;5482514;26;20066;-80
2024/04/09 02:39:31;;;;;;;0.10;0.10;;;14.90;1.00;;;;;;5451724;26;20039;-80
2024/04/09 02:42:02;;;;;;;0.20;0.20;;;14.80;1.00;;;;;;5444556;26;20027;-80
2024/04/09 02:44:29;;;;;;;0.20;0.20;;;14.80;1.00;;;;;;5446714;26;20035;-80
2024/04/09 02:46:56;;;;;;;0.10;0.10;;;14.80;1.00;;;;;;5444748;26;20050;-80
2024/04/09 02:49:23;;;;;;;0.10;0.10;;;14.80;1.00;;;;;;5446647;26;20292;-80
2024/04/09 02:51:50;;;;;;;0.10;0.10;;;14.80;1.00;;;;;;5446520;26;20466;-81
2024/04/09 02:54:17;;;;;;;0.10;0.10;;;14.80;1.00;;;;;;5445151;26;20337;-80
2024/04/09 02:56:43;;;;;;;0.10;0.10;;;14.80;1.00;;;;;;5446934;26;20022;-80
2024/04/09 02:59:11;;;;;;;0.10;0.10;;;14.90;1.00;;;;;;5447970;26;20031;-80
2024/04/09 03:01:38;;;;;;;0.10;0.10;;;14.90;1.00;;;;;;5446154;26;20028;-80
2024/04/09 03:04:06;;;;;;;0.10;0.10;;;14.80;1.00;;;;;;5445079;26;19995;-80
2024/04/09 03:06:33;;;;;;;0.10;0.10;;;14.80;1.00;;;;;;5447240;26;20026;-80
2024/04/09 03:09:02;;;;;;;0.10;0.10;;;14.80;1.00;;;;;;5457900;26;20038;-80
2024/04/09 03:11:29;;;;;;;0.20;0.20;;;14.70;1.00;;;;;;5473522;26;20028;-80
2024/04/09 03:13:55;;;;;;;0.20;0.20;;;14.70;1.00;;;;;;5445215;26;19999;-81
2024/04/09 03:16:23;;;;;;;0.13;0.13;;;14.70;1.00;;;;;;5446132;26;20406;-80
2024/04/09 03:18:53;;;;;;;0.20;0.20;;;14.70;1.00;;;;;;5445187;26;20065;-80
2024/04/09 03:21:20;;;;;;;0.10;0.10;;;14.70;1.00;;;;;;5446881;26;20043;-80
2024/04/09 03:23:47;;;;;;;0.10;0.10;;;14.60;1.00;;;;;;5444119;26;20027;-80
2024/04/09 03:26:14;;;;;;;0.10;0.10;;;14.60;1.00;;;;;;5446603;26;20033;-80
2024/04/09 03:28:44;;;;;;;0.10;0.10;;;14.60;1.00;;;;;;5449362;26;20115;-80
2024/04/09 03:31:11;;;;;;;0.10;0.10;;;14.60;1.00;;;;;;5449137;26;20030;-80
2024/04/09 03:33:38;;;;;;;0.10;0.10;;;14.70;1.00;;;;;;5447955;26;20009;-80
2024/04/09 03:36:08;;;;;;;0.10;0.10;;;14.60;1.00;;;;;;5449688;26;20023;-80
2024/04/09 03:38:34;;;;;;;0.10;0.10;;;14.70;1.00;;;;;;5449287;26;20439;-80
2024/04/09 03:41:06;;;;;;;0.10;0.10;;;14.70;1.00;;;;;;5449280;26;20027;-80
2024/04/09 03:43:33;;;;;;;0.10;0.10;;;14.70;1.00;;;;;;5447429;26;20371;-80
2024/04/09 03:46:08;;;;;;;0.10;0.10;;;14.70;1.00;;;;;;5449009;26;20558;-80
2024/04/09 03:48:36;;;;;;;0.10;0.10;;;14.70;1.00;;;;;;5448770;26;20040;-80
2024/04/09 03:51:03;;;;;;;0.10;0.10;;;14.70;1.00;;;;;;5448442;26;20027;-80
2024/04/09 03:53:30;;;;;;;0.17;0.17;;;14.70;1.00;;;;;;5448322;26;20047;-81
2024/04/09 03:55:58;;;;;;;0.10;0.10;;;14.60;1.00;;;;;;5449637;26;20050;-80
2024/04/09 03:58:29;;;;;;;0.10;0.10;;;14.60;1.00;;;;;;5448689;26;20030;-80
2024/04/09 04:01:03;;;;;;;0.10;0.10;;;14.60;1.00;;;;;;5448861;26;20035;-80
2024/04/09 04:03:32;;;;;;;0.10;0.10;;;14.60;1.00;;;;;;5484893;26;20093;-80
2024/04/09 04:06:00;;;;;;;0.13;0.13;;;14.50;1.00;;;;;;5484758;26;20029;-80
2024/04/09 04:08:32;;;;;;;0.10;0.10;;;14.60;1.00;;;;;;5482983;26;20022;-80
2024/04/09 04:11:03;;;;;;;0.10;0.10;;;14.50;1.00;;;;;;5483259;26;20026;-80
2024/04/09 04:13:30;;;;;;;;;;;14.50;1.00;;;;;;5448628;26;20006;-80
2024/04/09 04:15:58;;;;;;;0.10;0.10;;;14.50;1.00;;;;;;5475822;26;19959;-81
2024/04/09 04:18:26;;;;;;;0.15;0.15;;;14.50;1.00;;;;;;5477090;26;20031;-80
2024/04/09 04:20:53;;;;;;;0.10;0.10;;;14.60;1.00;;;;;;5448410;26;20038;-80
2024/04/09 04:23:21;;;;;;;0.20;0.20;;;14.50;1.00;;;;;;5448069;26;20046;-80
2024/04/09 04:26:04;;;;;;;0.10;0.10;;;14.50;1.00;;;;;;5447516;26;20479;-78
2024/04/09 04:28:35;;;;;;;0.13;0.13;;;14.50;1.00;;;;;;5449874;26;20034;-80
2024/04/09 04:31:08;;;;;;;0.20;0.20;;;14.50;1.00;;;;;;5448564;26;20022;-80
2024/04/09 04:33:36;;;;;;;0.20;0.20;;;14.50;1.00;;;;;;5446046;26;19995;-80
2024/04/09 04:36:04;;;;;;;0.10;0.10;;;14.50;1.00;;;;;;5448216;26;20370;-79
2024/04/09 04:38:31;;;;;;;0.10;0.10;;;14.50;1.00;;;;;;5448764;26;20030;-79
2024/04/09 04:40:59;;;;;;;0.15;0.15;;;14.50;1.00;;;;;;5446682;26;20038;-79
2024/04/09 04:43:26;;;;;;;0.10;0.10;;;14.40;1.00;;;;;;5447718;26;20035;-80
2024/04/09 04:45:55;;;;;;;0.20;0.20;;;14.50;1.00;;;;;;5449510;26;20013;-79
2024/04/09 04:48:22;;;;;;;0.10;0.10;;;14.40;1.00;;;;;;5448800;26;20034;-79
2024/04/09 04:50:49;;;;;;;0.10;0.10;;;14.40;1.00;;;;;;5446975;26;20031;-79
2024/04/09 04:53:16;;;;;;;0.10;0.10;;;14.50;1.00;;;;;;5448729;26;20028;-80
2024/04/09 04:55:43;;;;;;;0.10;0.10;;;14.50;1.00;;;;;;5446506;26;19995;-77
2024/04/09 04:58:10;;;;;;;0.20;0.20;;;14.50;1.00;;;;;;5449946;26;20024;-79
2024/04/09 05:00:37;;;;;;;0.10;0.10;;;14.50;1.00;;;;;;5447172;26;20026;-79
2024/04/09 05:03:04;;;;;;;0.10;0.10;;;14.50;1.00;;;;;;5448032;26;20026;-79
2024/04/09 05:05:32;;;;;;;0.13;0.13;;;14.40;1.00;;;;;;5447412;26;20023;-80
2024/04/09 05:07:59;;;;;;;0.10;0.10;;;14.40;1.00;;;;;;5446747;26;20031;-80
2024/04/09 05:10:26;;;;;;;0.10;0.10;;;14.40;1.00;;;;;;5448079;26;20030;-79
2024/04/09 05:12:53;;;;;;;0.10;0.10;;;14.40;1.00;;;;;;5447673;26;20022;-79
2024/04/09 05:15:21;;;;;;;0.10;0.10;;;14.40;1.00;;;;;;5446639;26;19999;-79
2024/04/09 05:17:49;;;;;;;0.13;0.13;;;14.40;1.00;;;;;;5473961;26;20579;-80
2024/04/09 05:20:18;;;;;;;0.10;0.10;;;14.30;1.00;;;;;;5450161;26;20031;-79
2024/04/09 05:22:48;;;;;;;0.20;0.20;;;14.30;1.00;;;;;;5446614;26;20023;-79
2024/04/09 05:25:16;;;;;;;0.20;0.20;;;14.30;1.00;;;;;;5447715;26;20027;-79
2024/04/09 05:27:44;;;;;;;0.15;0.15;;;14.40;1.00;;;;;;5447339;26;20042;-79
2024/04/09 05:30:12;;;;;;;0.10;0.10;;;14.30;1.00;;;;;;5447759;26;20074;-79
2024/04/09 05:32:41;;;;;;;0.10;0.10;;;14.20;1.00;;;;;;5447712;26;20035;-80
2024/04/09 05:35:09;;;;;;;0.20;0.20;;;14.20;1.00;;;;;;5446737;26;20009;-79
2024/04/09 05:37:37;;;;;;;0.20;0.20;;;14.20;1.00;;;;;;5462444;26;20034;-78
2024/04/09 05:40:08;;;;;;;0.10;0.10;;;14.20;1.00;;;;;;5483334;26;20022;-79
2024/04/09 05:42:36;;;;;;;;;;;14.10;1.00;;;;;;5484297;26;20030;-79
2024/04/09 05:45:06;;;;;;;0.20;0.20;;;14.10;1.00;;;;;;5469340;26;20267;-79
2024/04/09 05:47:32;;;;;;;0.10;0.10;;;14.10;1.00;;;;;;5449078;26;20355;-80
2024/04/09 05:49:59;;;;;;;0.10;0.10;;;14.10;1.00;;;;;;5444981;26;20031;-79
2024/04/09 05:52:29;;;;;;;0.10;0.10;;;14.10;1.00;;;;;;5447312;26;20027;-80
2024/04/09 05:54:57;;;;;;;0.10;0.10;;;14.00;1.00;;;;;;5445958;26;20537;-80
2024/04/09 05:57:24;;;;;;;0.10;0.10;;;14.00;1.00;;;;;;5448276;26;20038;-80
2024/04/09 05:59:52;;;;;;;0.10;0.10;;;13.90;1.00;;;;;;5446865;26;20022;-80
2024/04/09 06:02:18;;;;;;;0.10;0.10;;;14.00;1.00;;;;;;5447614;26;20022;-80
2024/04/09 06:04:45;;;;;;;0.10;0.10;;;13.90;1.00;;;;;;5445205;26;20009;-80
2024/04/09 06:07:12;;;;;;;0.10;0.10;;;13.90;1.00;;;;;;5448719;26;20038;-79
2024/04/09 06:09:39;;;;;;;0.10;0.10;;;13.90;1.00;;;;;;5469829;26;20038;-79
2024/04/09 06:12:06;;;;;;;0.10;0.10;;;13.90;1.00;;;;;;5464510;26;20146;-79
2024/04/09 06:14:33;;;;;;;0.10;0.10;;;13.80;1.00;;;;;;5447288;26;20009;-77
2024/04/09 06:17:00;;;;;;;0.20;0.20;;;13.80;1.00;;;;;;5447347;26;20026;-78
2024/04/09 06:19:26;;;;;;;0.13;0.13;;;13.70;1.00;;;;;;5445761;26;20023;-79
2024/04/09 06:21:54;;;;;;;0.10;0.10;;;13.70;1.00;;;;;;5446912;26;20058;-80
2024/04/09 06:24:21;;;;;;;0.15;0.15;;;13.70;1.00;;;;;;5481804;26;20025;-78
2024/04/09 06:26:48;;;;;;;0.17;0.17;;;13.60;1.00;;;;;;5482450;26;20025;-80
2024/04/09 06:29:16;;;;;;;0.20;0.20;;;13.60;1.00;;;;;;5481666;26;20037;-82
2024/04/09 06:31:43;;;;;;;0.10;0.10;;;13.60;1.00;;;;;;5482774;26;20029;-79
2024/04/09 06:34:10;;;;;;;0.20;0.20;;;13.50;1.00;;;;;;5478024;26;20026;-79
2024/04/09 06:36:37;;;;;;;0.10;0.10;;;13.50;1.00;;;;;;5447767;26;20027;-79
2024/04/09 06:39:05;;;;;;;0.10;0.10;;;13.50;1.00;;;;;;5445526;26;20031;-80
2024/04/09 06:41:32;;;;;;;0.10;0.10;;;13.50;1.00;;;;;;5447087;26;20462;-80
2024/04/09 06:43:58;;;;;;;0.20;0.20;;;13.40;1.00;;;;;;5446483;26;20470;-80
2024/04/09 06:46:26;;;;;;;0.10;0.10;;;13.50;1.00;;;;;;5445561;26;20031;-80
2024/04/09 06:48:53;;;;;;;0.10;0.10;;;13.40;1.00;;;;;;5443064;26;20375;-80
2024/04/09 06:51:21;;;;;;;0.10;0.10;;;13.50;1.00;;;;;;5446580;26;20540;-80
2024/04/09 06:53:48;;;;;;;0.10;0.10;;;13.60;1.00;;;;;;5445514;26;20333;-81
2024/04/09 06:56:15;;;;;;;0.10;0.10;;;13.50;1.00;;;;;;5447163;26;20034;-81
2024/04/09 06:58:43;;;;;;;0.10;0.10;;;13.60;1.00;;;;;;5446371;26;20034;-81
2024/04/09 07:01:09;;;;;;;0.10;0.10;;;13.60;1.00;;;;;;5445434;26;20050;-80
2024/04/09 07:03:39;;;;;;;0.20;0.20;;;13.60;1.00;;;;;;5466249;26;20034;-81
2024/04/09 07:06:09;;;;;;;0.10;0.10;;;13.60;1.00;;;;;;5485981;26;20022;-82
2024/04/09 07:08:36;;;;;;;0.10;0.10;;;13.60;1.00;;;;;;5485143;26;20026;-81
2024/04/09 07:11:03;;;;;;;0.10;0.10;;;13.60;1.00;;;;;;5483586;26;20478;-81
2024/04/09 07:13:31;;;;;;;0.20;0.20;;;13.60;1.00;;;;;;5450960;26;20489;-83
2024/04/09 07:15:58;;;;;;;0.10;0.10;;;13.60;1.00;;;;;;5448459;26;19999;-81
2024/04/09 07:18:27;;;;;;;0.20;0.20;;;13.60;1.00;;;;;;5449600;26;20029;-81
2024/04/09 07:20:54;;;;;;;0.20;0.20;;;13.60;1.00;;;;;;5448952;26;20027;-81
2024/04/09 07:23:22;;;;;;;0.10;0.10;;;13.70;1.00;;;;;;5450362;26;20035;-81
2024/04/09 07:25:49;;;;;;;0.13;0.13;;;13.70;1.00;;;;;;5472866;26;20027;-81
2024/04/09 07:28:16;;;;;;;0.10;0.10;;;13.80;1.00;;;;;;5486018;26;20026;-81
2024/04/09 07:30:43;;;;;;;0.10;0.10;;;13.90;1.00;;;;;;5485661;26;20186;-82
2024/04/09 07:33:10;;;;;;;0.20;0.20;;;13.80;1.00;;;;;;5472845;26;20034;-81
2024/04/09 07:35:37;;;;;;;0.20;0.20;;;13.80;1.00;;;;;;5447793;26;20337;-81
2024/04/09 07:38:04;;;;;;;0.10;0.10;;;13.80;1.00;;;;;;5449888;26;20023;-82
2024/04/09 07:40:31;;;;;;;0.10;0.10;;;13.70;1.00;;;;;;5449071;26;20023;-81
2024/04/09 07:42:58;;;;;;;0.10;0.10;;;13.70;1.00;;;;;;5448669;26;20043;-82
2024/04/09 07:45:26;;;;;;;0.13;0.13;;;13.80;1.00;;;;;;5449141;26;20031;-82
2024/04/09 07:47:53;;;;;;;0.10;0.10;;;13.70;1.00;;;;;;5448661;26;20007;-82
2024/04/09 07:50:20;;;;;;;0.20;0.20;;;13.60;1.00;;;;;;5447218;26;20027;-80
2024/04/09 07:52:47;;;;;;;0.10;0.10;;;13.70;1.00;;;;;;5450147;26;20050;-80
2024/04/09 07:55:15;;;;;;;0.10;0.10;;;13.60;1.00;;;;;;5448599;26;20006;-80
2024/04/09 07:57:45;;;;;;;0.20;0.20;;;13.70;1.00;;;;;;5462813;26;20454;-82
2024/04/09 08:00:17;;;;;;;0.10;0.10;;;13.60;1.00;;;;;;5485915;26;20465;-82
2024/04/09 08:02:44;;;;;;;0.10;0.10;;;13.60;1.00;;;;;;5485541;26;20560;-82
2024/04/09 08:05:12;;;;;;;0.10;0.10;;;13.60;1.00;;;;;;5483235;26;20033;-81
2024/04/09 08:07:39;;;;;;;0.10;0.10;;;13.60;1.00;;;;;;5485612;26;20466;-81
2024/04/09 08:10:11;;;;;;;0.10;0.10;;;13.70;1.00;;;;;;5484564;26;20025;-81
2024/04/09 08:12:46;;;;;;;0.10;0.10;;;13.80;1.00;;;;;;5458910;26;20027;-82
2024/04/09 08:15:13;;;;;;;0.10;0.10;;;13.80;1.00;;;;;;5447776;26;20013;-81
2024/04/09 08:17:42;;;;;;;0.13;0.13;;;13.80;1.00;;;;;;5448450;26;20118;-81
2024/04/09 08:20:10;;;;;;;0.10;0.10;;;13.90;1.00;;;;;;5447300;26;20023;-82
2024/04/09 08:22:40;;;;;;;0.10;0.10;;;13.80;1.00;;;;;;5450049;26;20027;-81
2024/04/09 08:25:08;;;;;;;0.13;0.13;;;13.80;1.00;;;;;;5447366;26;20061;-81
2024/04/09 08:27:36;;;;;;;0.10;0.10;;;13.80;1.00;;;;;;5470410;26;20611;-80
2024/04/09 08:30:07;;;;;;;0.15;0.15;;;13.80;1.00;;;;;;5484681;26;20497;-82
2024/04/09 08:32:35;;;;;;;0.10;0.10;;;13.80;1.00;;;;;;5471074;26;20474;-82
2024/04/09 08:35:02;;;;;;;0.10;0.10;;;13.80;1.00;;;;;;5447281;26;20050;-81
2024/04/09 08:37:29;;;;;;;0.10;0.10;;;13.80;1.00;;;;;;5449920;26;20367;-84
2024/04/09 08:39:59;;;;;;;0.15;0.15;;;13.80;1.00;;;;;;5446646;26;20344;-82
2024/04/09 08:42:26;;;;;;;0.10;0.10;;;13.70;1.00;;;;;;5471012;26;20030;-84
2024/04/09 08:44:58;;;;;;;0.10;0.10;;;13.70;1.00;;;;;;5483784;26;20023;-80
2024/04/09 08:47:25;;;;;;;0.10;0.10;;;13.60;1.00;;;;;;5475304;26;20011;-81
2024/04/09 08:49:56;;;;;;;0.20;0.20;;;13.60;1.00;;;;;;5444067;26;20002;-79
2024/04/09 08:52:25;;;;;;;0.10;0.10;;;13.60;1.00;;;;;;5449500;26;20462;-80
2024/04/09 08:54:53;;;;;;;0.10;0.10;;;13.60;1.00;;;;;;5445457;26;20009;-80
2024/04/09 08:57:21;;;;;;;0.10;0.10;;;13.50;1.00;;;;;;5482885;26;20034;-81
2024/04/09 08:59:48;;;;;;;0.10;0.10;;;13.50;1.00;;;;;;5482935;26;20034;-80
2024/04/09 09:02:16;;;;;;;0.10;0.10;;;13.60;1.00;;;;;;5469126;26;20023;-79
2024/04/09 09:04:45;;;;;;;0.10;0.10;;;13.60;1.00;;;;;;5475676;26;20038;-80
2024/04/09 09:07:16;;;;;;;0.17;0.17;;;13.50;1.00;;;;;;5484218;26;20033;-80
2024/04/09 09:09:44;;;;;;;0.05;0.05;;;13.60;1.00;;;;;;5482967;26;20035;-80
2024/04/09 09:12:11;;;;;;;0.10;0.10;;;13.60;1.00;;;;;;5459133;26;20034;-80
2024/04/09 09:14:38;;;;;;;0.15;0.15;;;13.60;1.00;;;;;;5446551;26;20031;-82
2024/04/09 09:17:07;;;;;;;0.10;0.10;;;13.60;1.00;;;;;;5447761;26;20342;-82
2024/04/09 09:19:34;;;;;;;0.10;0.10;;;13.60;1.00;;;;;;5451789;26;20022;-80
2024/04/09 09:22:04;;;;;;;0.10;0.10;;;13.60;1.00;;;;;;5450169;26;20039;-80
2024/04/09 09:24:32;;;;;;;0.17;0.17;;;13.60;1.00;;;;;;5447605;26;20480;-80
2024/04/09 09:27:05;;;;;;;0.10;0.10;;;13.80;1.00;;;;;;5474345;26;21013;-81
2024/04/09 09:29:32;;;;;;;0.10;0.10;;;13.90;1.00;;;;;;5483127;26;20026;-81
2024/04/09 09:31:59;;;;;;;0.10;0.10;;;14.00;1.00;;;;;;5462643;26;20503;-81
2024/04/09 09:34:44;;;;;;;0.10;0.10;;;14.10;1.00;;;;;;5446927;26;20023;-82
2024/04/09 09:37:11;;;;;;;0.10;0.10;;;14.20;1.00;;;;;;5447667;26;20030;-81
2024/04/09 09:39:39;;;;;;;0.20;0.20;;;14.20;1.00;;;;;;5447005;26;20026;-81
2024/04/09 09:42:09;;;;;;;0.15;0.15;;;14.30;1.00;;;;;;5448421;25;20628;-80
2024/04/09 09:44:37;;;;;;;0.10;0.10;;;14.30;1.00;;;;;;5461774;26;20047;-80
2024/04/09 09:47:05;;;;;;;0.10;0.10;;;14.30;1.00;;;;;;5484623;26;20027;-80
2024/04/09 09:49:33;;;;;;;0.20;0.20;;;14.40;1.00;;;;;;5459558;26;20006;-80
2024/04/09 09:52:01;;;;;;;0.10;0.10;;;14.50;1.00;;;;;;5448298;26;20379;-79
2024/04/09 09:54:29;;;;;;;0.10;0.10;;;14.70;1.00;;;;;;5447079;26;20023;-80
2024/04/09 09:57:01;;;;;;;0.10;0.10;;;14.90;1.00;;;;;;5480025;26;19998;-79
2024/04/09 09:59:51;;;;;;;0.10;0.10;;;15.10;1.00;;;;;;5483402;26;20034;-80
2024/04/09 10:02:19;;;;;;;0.10;0.10;;;15.10;1.00;;;;;;5452153;26;20039;-81
2024/04/09 10:04:48;;;;;;;0.20;0.20;;;15.20;1.00;;;;;;5444277;26;20026;-81
2024/04/09 10:07:18;;;;;;;0.10;0.10;;;15.30;1.00;;;;;;5483784;26;20034;-82
2024/04/09 10:09:53;;;;;;;0.10;0.10;;;15.40;1.00;;;;;;5478701;26;20031;-80
2024/04/09 10:12:34;;;;;;;0.10;0.10;;;15.40;1.00;;;;;;5446975;26;20023;-80
2024/04/09 10:15:05;;;;;;;0.10;0.10;;;15.50;1.00;;;;;;5445886;26;20027;-78
2024/04/09 10:17:48;;;;;;;;;;;15.50;1.00;;;;;;5447521;26;20039;-82
2024/04/09 10:20:27;;;;;;;0.10;0.10;;;15.60;1.00;;;;;;5447015;26;19924;-81
2024/04/09 10:22:55;;;;;;;0.10;0.10;;;15.80;1.00;;;;;;5446824;26;20035;-81
2024/04/09 10:25:24;;;;;;;0.20;0.20;;;15.80;1.00;;;;;;5464071;26;20013;-81
2024/04/09 10:28:13;;;;;;;0.10;0.10;;;15.90;1.00;;;;;;5483130;26;20037;-81
2024/04/09 10:30:45;;;;;;;0.10;0.10;;;15.90;1.00;;;;;;5465739;26;20030;-82
2024/04/09 10:33:12;;;;;;;0.10;0.10;;;16.00;1.00;;;;;;5445970;26;20463;-81
2024/04/09 10:35:45;;;;;;;0.10;0.10;;;16.00;1.00;;;;;;5445921;26;20026;-82
2024/04/09 10:38:14;;;;;;;0.10;0.10;;;16.10;1.00;;;;;;5445730;26;20349;-84
2024/04/09 10:40:42;;;;;;;0.13;0.13;;;16.00;1.00;;;;;;5446971;26;20031;-80
2024/04/09 10:43:10;;;;;;;0.10;0.10;;;15.90;1.00;;;;;;5447519;26;20533;-82
2024/04/09 10:45:37;;;;;;;0.10;0.10;;;15.80;1.00;;;;;;5475841;26;20022;-80
2024/04/09 10:48:07;;;;;;;0.10;0.10;;;15.80;1.00;;;;;;5483450;26;20049;-81
2024/04/09 10:50:34;;;;;;;0.15;0.15;;;15.70;1.00;;;;;;5452394;26;20035;-82
2024/04/09 10:53:02;;;;;;;0.10;0.10;;;15.70;1.00;;;;;;5444954;26;20449;-81
2024/04/09 10:55:30;;;;;;;0.10;0.10;;;15.80;1.00;;;;;;5446375;26;20544;-82
2024/04/09 10:57:56;;;;;;;0.15;0.15;;;15.80;1.00;;;;;;5447790;26;20009;-80
2024/04/09 11:00:24;;;;;;;0.10;0.10;;;15.80;1.00;;;;;;5445984;26;20331;-80
2024/04/09 11:02:51;;;;;;;0.20;0.20;;;15.80;1.00;;;;;;5446571;26;20363;-81
2024/04/09 11:05:18;;;;;;;0.20;0.20;;;16.00;1.00;;;;;;5444663;26;20030;-80
2024/04/09 11:07:47;;;;;;;0.20;0.20;;;16.10;1.00;;;;;;5446979;26;20023;-80
2024/04/09 11:10:21;;;;;;;0.10;0.10;;;16.20;1.00;;;;;;5445504;26;20031;-81
2024/04/09 11:12:51;;;;;;;0.10;0.10;;;16.20;1.00;;;;;;5471910;26;20026;-79
2024/04/09 11:15:19;;;;;;;0.10;0.10;;;16.20;1.00;;;;;;5482453;26;20486;-84
2024/04/09 11:17:47;;;;;;;0.20;0.20;;;16.10;1.00;;;;;;5458979;26;20027;-80
2024/04/09 11:20:15;;;;;;;0.10;0.10;;;16.00;1.00;;;;;;5444842;26;20034;-84
2024/04/09 11:22:42;;;;;;;0.10;0.10;;;16.00;1.00;;;;;;5445280;26;20497;-83
2024/04/09 11:25:14;;;;;;;0.10;0.10;;;15.90;1.00;;;;;;5445568;26;20027;-84
2024/04/09 11:27:47;;;;;;;0.10;0.10;;;15.90;1.00;;;;;;5448607;26;20043;-81
2024/04/09 11:30:26;;;;;;;0.10;0.10;;;15.80;1.00;;;;;;5446200;26;20039;-82
2024/04/09 11:32:57;;;;;;;0.10;0.10;;;15.70;1.00;;;;;;5445571;26;20486;-81
2024/04/09 11:35:25;;;;;;;0.17;0.17;;;15.70;1.00;;;;;;5443934;26;19994;-83
2024/04/09 11:37:59;;;;;;;0.20;0.20;;;15.60;1.00;;;;;;5445998;26;20023;-83
2024/04/09 11:40:28;;;;;;;0.10;0.10;;;15.60;1.00;;;;;;5445737;26;20024;-80
2024/04/09 11:42:57;;;;;;;0.20;0.20;;;15.60;1.00;;;;;;5444417;26;20046;-80
2024/04/09 11:45:35;;;;;;;0.10;0.10;;;15.60;1.00;;;;;;5472487;26;20502;-81
2024/04/09 11:48:03;;;;;;;0.10;0.10;;;15.50;1.00;;;;;;5458369;26;20027;-82
2024/04/09 11:50:30;;;;;;;0.10;0.10;;;15.60;1.00;;;;;;5445978;26;20041;-82
2024/04/09 11:52:57;;;;;;;0.20;0.20;;;15.60;1.00;;;;;;5448210;26;20378;-82
2024/04/09 11:55:24;;;;;;;0.20;0.20;;;15.70;1.00;;;;;;5448728;26;20038;-81
2024/04/09 11:57:51;;;;;;;0.10;0.10;;;15.70;1.00;;;;;;5449212;26;20003;-81
2024/04/09 12:00:18;;;;;;;0.10;0.10;;;15.70;1.00;;;;;;5449192;26;20023;-82
2024/04/09 12:02:45;;;;;;;0.10;0.10;;;15.60;1.00;;;;;;5448030;26;20022;-81
2024/04/09 12:05:14;;;;;;;0.10;0.10;;;15.50;1.00;;;;;;5447508;26;20363;-81
2024/04/09 12:07:42;;;;;;;0.13;0.13;;;15.50;1.00;;;;;;5449508;26;20670;-82
2024/04/09 12:10:10;;;;;;;0.10;0.10;;;15.50;1.00;;;;;;5447305;26;20042;-82
2024/04/09 12:12:41;;;;;;;0.10;0.10;;;15.50;1.00;;;;;;5449169;26;20027;-81
2024/04/09 12:15:09;;;;;;;0.10;0.10;;;15.50;1.00;;;;;;5469311;26;20031;-81
2024/04/09 12:17:36;;;;;;;0.17;0.17;;;15.50;1.00;;;;;;5472642;26;20017;-81
2024/04/09 12:20:03;;;;;;;0.13;0.13;;;15.50;1.00;;;;;;5447250;26;20038;-81
2024/04/09 12:22:30;;;;;;;0.10;0.10;;;15.50;1.00;;;;;;5448740;26;20027;-79
2024/04/09 12:24:57;;;;;;;0.13;0.13;;;15.50;1.00;;;;;;5446736;26;20027;-81
2024/04/09 12:27:24;;;;;;;0.20;0.20;;;15.50;1.00;;;;;;5450873;26;20035;-81
2024/04/09 12:29:51;;;;;;;0.10;0.10;;;15.50;1.00;;;;;;5448479;26;20042;-80
2024/04/09 12:32:19;;;;;;;0.10;0.10;;;15.50;1.00;;;;;;5448130;26;20013;-80
2024/04/09 12:34:47;;;;;;;0.20;0.20;;;15.50;1.00;;;;;;5446484;26;20043;-80
2024/04/09 12:37:13;;;;;;;0.10;0.10;;;15.50;1.00;;;;;;5449568;26;20027;-81
2024/04/09 12:39:40;;;;;;;0.20;0.20;;;15.30;1.00;;;;;;5447693;26;20018;-81
2024/04/09 12:42:08;;;;;;;0.20;0.20;;;15.30;1.00;;;;;;5449289;26;20023;-80
2024/04/09 12:44:35;;;;;;;0.10;0.10;;;15.10;1.00;;;;;;5463303;26;20021;-81
2024/04/09 12:47:03;;;;;;;0.10;0.10;;;15.00;1.00;;;;;;5480039;26;20034;-81
2024/04/09 12:49:33;;;;;;;0.10;0.10;;;14.90;1.00;;;;;;5447282;26;20474;-81
2024/04/09 12:52:00;;;;;;;0.20;0.20;;;14.80;1.00;;;;;;5446944;26;20089;-80
2024/04/09 12:54:27;;;;;;;0.10;0.10;;;14.80;1.00;;;;;;5485016;26;20030;-80
2024/04/09 12:56:54;;;;;;;0.10;0.10;;;14.90;1.00;;;;;;5484876;26;20029;-80
2024/04/09 12:59:21;;;;;;;0.10;0.10;;;15.10;1.00;;;;;;5447484;26;20009;-81
2024/04/09 13:01:48;;;;;;;0.10;0.10;;;15.20;1.00;;;;;;5448010;26;20038;-81
2024/04/09 13:04:15;;;;;;;0.10;0.10;;;15.10;1.00;;;;;;5446834;26;20023;-81